YYZ weather

Lester B. Pearson International Airport
Toronto, Ontario, Canada

Public forecast

Using degrees Celsius for public forecast. Weather courtesy of forecast.io.

Current aviation weather report (METAR) for Lester B. Pearson International Airport

Retrieved 2019/10/23 01:00 UTC (51 minutes ago):

CYYZ 230100Z 20010KT 15SM FEW075 11/04 A2972 RMK AC1 AC TR SLP067

Aviation forecast (TAF) for Lester B. Pearson International Airport

Retrieved 2019-10-23 03:39 UTC (0 seconds ago):

TAF CYYZ 230238Z 2303/2406 22012KT P6SM BKN030 TEMPO 2305/2316 BKN020 FM231600 23015G28KT P6SM BKN025 FM232300 23012KT P6SM SCT040 BECMG 2401/2403 23008KT RMK NXT FCST BY 230600Z